createdAt,value
2022-10-03T00:02:49.319Z,7.80
2022-10-03T00:05:54.517Z,7.80
2022-10-03T00:08:48.777Z,7.80
2022-10-03T00:11:37.466Z,7.80
2022-10-03T00:14:22.676Z,7.80
2022-10-03T00:17:08.586Z,7.80
2022-10-03T00:19:49.367Z,7.80
2022-10-03T00:22:31.743Z,7.70
2022-10-03T00:25:17.017Z,7.70
2022-10-03T00:28:14.682Z,7.70
2022-10-03T00:31:09.430Z,7.70
2022-10-03T00:33:45.237Z,7.70
2022-10-03T00:36:31.509Z,7.80
2022-10-03T00:39:19.445Z,7.70
2022-10-03T00:41:59.579Z,7.70
2022-10-03T00:44:47.384Z,7.60
2022-10-03T00:47:26.529Z,7.60
2022-10-03T00:50:17.296Z,7.70
2022-10-03T00:53:06.426Z,7.60
2022-10-03T00:55:52.127Z,7.70
2022-10-03T00:58:37.537Z,7.70
2022-10-03T01:01:23.602Z,7.60
2022-10-03T01:04:32.568Z,7.60
2022-10-03T01:07:25.323Z,7.50
2022-10-03T01:10:05.597Z,7.50
2022-10-03T01:13:14.078Z,7.50
2022-10-03T01:16:01.580Z,7.50
2022-10-03T01:18:38.189Z,7.50
2022-10-03T01:21:21.973Z,7.40
2022-10-03T01:23:52.363Z,7.50
2022-10-03T01:26:24.846Z,7.50
2022-10-03T01:29:19.597Z,7.50
2022-10-03T01:32:08.526Z,7.40
2022-10-03T01:35:14.040Z,7.40
2022-10-03T01:38:06.593Z,7.40
2022-10-03T01:41:03.260Z,7.50
2022-10-03T01:43:50.946Z,7.50
2022-10-03T01:46:26.575Z,7.50
2022-10-03T01:48:59.699Z,7.50
2022-10-03T01:51:29.491Z,7.40
2022-10-03T01:54:07.728Z,7.30
2022-10-03T01:56:49.853Z,7.40
2022-10-03T01:59:35.208Z,7.40
2022-10-03T02:02:07.698Z,7.30
2022-10-03T02:04:34.457Z,7.40
2022-10-03T02:07:40.851Z,7.30
2022-10-03T02:10:32.420Z,7.20
2022-10-03T02:13:24.479Z,7.30
2022-10-03T02:16:12.606Z,7.40
2022-10-03T02:18:57.447Z,7.40
2022-10-03T02:21:26.998Z,7.30
2022-10-03T02:24:20.593Z,7.40
2022-10-03T02:27:17.440Z,7.50
2022-10-03T02:30:02.437Z,7.40
2022-10-03T02:32:35.508Z,7.40
2022-10-03T02:35:10.477Z,7.50
2022-10-03T02:38:25.222Z,7.50
2022-10-03T02:41:41.545Z,7.60
2022-10-03T02:44:45.615Z,7.50
2022-10-03T02:47:21.476Z,7.50
2022-10-03T02:50:09.840Z,7.50
2022-10-03T02:53:10.646Z,7.50
2022-10-03T02:55:59.595Z,7.60
2022-10-03T02:58:44.641Z,7.60
2022-10-03T03:01:27.348Z,7.70
2022-10-03T03:04:00.119Z,7.70
2022-10-03T03:07:05.184Z,7.70
2022-10-03T03:09:58.163Z,7.80
2022-10-03T03:12:50.677Z,7.70
2022-10-03T03:15:59.451Z,7.90
2022-10-03T03:18:39.566Z,7.80
2022-10-03T03:21:34.713Z,7.90
2022-10-03T03:24:20.345Z,7.90
2022-10-03T03:27:22.364Z,7.90
2022-10-03T03:30:08.850Z,7.90
2022-10-03T03:32:55.432Z,7.90
2022-10-03T03:35:34.296Z,7.90
2022-10-03T03:38:12.940Z,7.90
2022-10-03T03:40:54.797Z,7.90
2022-10-03T03:43:40.260Z,8.00
2022-10-03T03:46:35.812Z,8.00
2022-10-03T03:49:36.880Z,8.10
2022-10-03T03:52:33.183Z,8.20
2022-10-03T03:55:15.310Z,8.20
2022-10-03T03:58:04.396Z,8.30
2022-10-03T04:00:38.504Z,8.20
2022-10-03T04:03:27.381Z,8.20
2022-10-03T04:06:35.036Z,8.20
2022-10-03T04:09:01.782Z,8.30
2022-10-03T04:11:50.613Z,8.30
2022-10-03T04:14:42.179Z,8.40
2022-10-03T04:18:10.620Z,8.40
2022-10-03T04:20:49.666Z,8.40
2022-10-03T04:23:23.065Z,8.40
2022-10-03T04:25:58.697Z,8.40
2022-10-03T04:29:03.593Z,8.40
2022-10-03T04:32:05.443Z,8.50
2022-10-03T04:34:41.072Z,8.50
2022-10-03T04:37:27.935Z,8.60
2022-10-03T04:40:04.372Z,8.70
2022-10-03T04:43:05.628Z,8.70
2022-10-03T04:45:47.358Z,8.80
2022-10-03T04:48:24.820Z,8.70
2022-10-03T04:51:03.896Z,8.80
2022-10-03T04:54:02.310Z,8.80
2022-10-03T04:56:44.266Z,8.80
2022-10-03T04:59:35.000Z,8.80
2022-10-03T05:02:33.928Z,8.80
2022-10-03T05:05:29.680Z,8.90
2022-10-03T05:08:19.844Z,8.90
2022-10-03T05:11:12.973Z,8.90
2022-10-03T05:14:17.503Z,8.90
2022-10-03T05:17:07.924Z,9.00
2022-10-03T05:19:44.248Z,9.00
2022-10-03T05:22:36.222Z,9.00
2022-10-03T05:25:21.951Z,8.90
2022-10-03T05:28:01.421Z,8.90
2022-10-03T05:30:53.400Z,8.80
2022-10-03T05:33:20.338Z,8.90
2022-10-03T05:36:02.305Z,9.10
2022-10-03T05:39:06.662Z,9.00
2022-10-03T05:41:36.507Z,9.00
2022-10-03T05:44:06.899Z,9.10
2022-10-03T05:46:55.437Z,9.00
2022-10-03T05:49:49.260Z,9.00
2022-10-03T05:52:51.031Z,9.00
2022-10-03T05:55:42.693Z,9.10
2022-10-03T05:58:27.324Z,9.00
2022-10-03T06:01:36.707Z,9.00
2022-10-03T06:04:06.169Z,9.00
2022-10-03T06:07:12.563Z,9.00
2022-10-03T06:09:39.314Z,9.00
2022-10-03T06:12:28.667Z,9.00
2022-10-03T06:15:17.815Z,9.00
2022-10-03T06:17:44.579Z,9.00
2022-10-03T06:20:50.365Z,9.00
2022-10-03T06:23:41.824Z,9.00
2022-10-03T06:26:30.344Z,9.00
2022-10-03T06:29:17.368Z,9.00
2022-10-03T06:31:56.211Z,9.00
2022-10-03T06:34:35.285Z,9.10
2022-10-03T06:37:24.744Z,9.00
2022-10-03T06:40:40.120Z,9.10
2022-10-03T06:43:31.097Z,8.90
2022-10-03T06:46:04.465Z,8.80
2022-10-03T06:49:07.227Z,8.90
2022-10-03T06:52:10.369Z,8.80
2022-10-03T06:54:53.795Z,8.80
2022-10-03T06:57:29.634Z,8.80
2022-10-03T07:00:10.320Z,8.80
2022-10-03T07:03:14.352Z,8.90
2022-10-03T07:05:53.238Z,8.90
2022-10-03T07:08:23.025Z,8.90
2022-10-03T07:11:31.086Z,8.80
2022-10-03T07:14:06.537Z,8.70
2022-10-03T07:16:52.329Z,8.70
2022-10-03T07:19:38.090Z,8.80
2022-10-03T07:22:20.015Z,8.90
2022-10-03T07:25:05.387Z,9.00
2022-10-03T07:27:51.409Z,8.90
2022-10-03T07:30:22.861Z,8.90
2022-10-03T07:32:52.489Z,8.90
2022-10-03T07:36:05.062Z,8.80
2022-10-03T07:38:58.761Z,8.80
2022-10-03T07:41:48.729Z,8.90
2022-10-03T07:44:57.637Z,8.90
2022-10-03T07:47:33.373Z,8.90
2022-10-03T07:50:22.068Z,9.00
2022-10-03T07:53:11.744Z,9.00
2022-10-03T07:55:47.633Z,9.10
2022-10-03T07:58:25.255Z,9.20
2022-10-03T08:01:10.048Z,9.20
2022-10-03T08:04:14.686Z,9.30
2022-10-03T08:06:45.545Z,9.40
2022-10-03T08:09:33.363Z,9.40
2022-10-03T08:12:31.738Z,9.50
2022-10-03T08:15:50.850Z,9.60
2022-10-03T08:19:01.992Z,9.60
2022-10-03T08:22:13.613Z,9.60
2022-10-03T08:24:40.405Z,9.80
2022-10-03T08:27:44.707Z,9.70
2022-10-03T08:30:24.403Z,9.70
2022-10-03T08:32:54.071Z,9.70
2022-10-03T08:35:39.447Z,9.90
2022-10-03T08:38:23.902Z,10.00
2022-10-03T08:41:22.163Z,9.90
2022-10-03T08:44:15.615Z,10.00
2022-10-03T08:47:02.472Z,10.10
2022-10-03T08:49:54.423Z,10.20
2022-10-03T08:52:39.509Z,10.20
2022-10-03T08:55:16.793Z,10.10
2022-10-03T08:58:06.199Z,10.30
2022-10-03T09:00:55.965Z,10.30
2022-10-03T09:03:53.421Z,10.40
2022-10-03T09:06:52.796Z,10.40
2022-10-03T09:10:00.386Z,10.40
2022-10-03T09:12:53.510Z,10.50
2022-10-03T09:15:45.036Z,10.60
2022-10-03T09:18:32.767Z,10.70
2022-10-03T09:21:21.359Z,10.90
2022-10-03T09:24:06.731Z,10.90
2022-10-03T09:26:59.368Z,10.90
2022-10-03T09:29:47.384Z,10.90
2022-10-03T09:32:14.237Z,11.00
2022-10-03T09:35:06.797Z,11.00
2022-10-03T09:37:54.452Z,11.10
2022-10-03T09:41:13.314Z,11.10
2022-10-03T09:43:43.201Z,11.00
2022-10-03T09:47:07.364Z,11.10
2022-10-03T09:50:00.243Z,11.10
2022-10-03T09:52:27.002Z,11.00
2022-10-03T09:55:02.222Z,10.90
2022-10-03T09:57:50.207Z,10.90
2022-10-03T10:00:29.021Z,10.90
2022-10-03T10:03:25.796Z,10.90
2022-10-03T10:05:57.823Z,11.00
2022-10-03T10:09:03.705Z,11.00
2022-10-03T10:12:20.866Z,10.90
2022-10-03T10:15:24.601Z,10.90
2022-10-03T10:18:20.829Z,11.00
2022-10-03T10:21:26.032Z,11.00
2022-10-03T10:24:06.517Z,11.00
2022-10-03T10:26:51.336Z,11.00
2022-10-03T10:29:30.348Z,11.00
2022-10-03T10:32:20.447Z,11.00
2022-10-03T10:35:28.986Z,11.00
2022-10-03T10:38:32.964Z,11.00
2022-10-03T10:41:05.698Z,11.10
2022-10-03T10:43:48.205Z,11.10
2022-10-03T10:46:48.321Z,11.20
2022-10-03T10:49:38.289Z,11.20
2022-10-03T10:52:42.647Z,11.20
2022-10-03T10:55:27.279Z,11.20
2022-10-03T10:58:31.661Z,11.20
2022-10-03T11:01:29.321Z,11.30
2022-10-03T11:04:15.076Z,11.40
2022-10-03T11:07:15.871Z,11.30
2022-10-03T11:10:01.064Z,11.30
2022-10-03T11:13:01.357Z,11.40
2022-10-03T11:15:48.099Z,11.50
2022-10-03T11:18:36.412Z,11.50
2022-10-03T11:21:24.981Z,11.50
2022-10-03T11:24:34.438Z,11.60
2022-10-03T11:27:29.188Z,11.60
2022-10-03T11:30:41.385Z,11.70
2022-10-03T11:33:45.244Z,11.70
2022-10-03T11:36:27.862Z,11.80
2022-10-03T11:38:57.693Z,11.80
2022-10-03T11:41:34.151Z,11.80
2022-10-03T11:44:23.465Z,11.80
2022-10-03T11:46:59.216Z,11.80
2022-10-03T11:49:44.537Z,11.80
2022-10-03T11:52:14.103Z,11.80
2022-10-03T11:54:45.961Z,11.80
2022-10-03T11:57:18.029Z,11.90
2022-10-03T12:00:05.141Z,11.90
2022-10-03T12:02:38.822Z,11.90
2022-10-03T12:05:18.685Z,12.00
2022-10-03T12:08:18.558Z,12.00
2022-10-03T12:11:14.059Z,11.90
2022-10-03T12:13:48.422Z,11.90
2022-10-03T12:16:31.100Z,12.00
2022-10-03T12:19:31.098Z,11.90
2022-10-03T12:22:19.933Z,12.00
2022-10-03T12:24:48.229Z,11.90
2022-10-03T12:27:38.178Z,11.90
2022-10-03T12:30:16.427Z,11.90
2022-10-03T12:32:49.712Z,11.90
2022-10-03T12:35:35.543Z,11.90
2022-10-03T12:38:15.136Z,11.90
2022-10-03T12:41:14.073Z,12.00
2022-10-03T12:44:13.820Z,12.00
2022-10-03T12:46:40.707Z,12.00
2022-10-03T12:49:17.891Z,12.00
2022-10-03T12:51:50.831Z,12.00
2022-10-03T12:54:56.007Z,12.10
2022-10-03T12:57:41.926Z,12.10
2022-10-03T13:00:17.350Z,12.10
2022-10-03T13:03:05.604Z,12.30
2022-10-03T13:05:32.480Z,12.20
2022-10-03T13:08:06.832Z,12.20
2022-10-03T13:10:42.391Z,12.20
2022-10-03T13:13:59.272Z,12.20
2022-10-03T13:16:33.488Z,12.20
2022-10-03T13:19:20.543Z,12.20
2022-10-03T13:21:56.110Z,12.20
2022-10-03T13:24:46.116Z,12.30
2022-10-03T13:27:42.275Z,12.30
2022-10-03T13:30:21.387Z,12.40
2022-10-03T13:33:03.583Z,12.30
2022-10-03T13:35:59.571Z,12.20
2022-10-03T13:39:05.343Z,12.20
2022-10-03T13:41:55.608Z,12.10
2022-10-03T13:44:34.899Z,12.10
2022-10-03T13:47:17.146Z,12.10
2022-10-03T13:49:54.815Z,12.10
2022-10-03T13:52:38.207Z,12.10
2022-10-03T13:55:26.425Z,12.00
2022-10-03T13:58:07.592Z,12.00
2022-10-03T14:01:11.701Z,12.10
2022-10-03T14:04:09.813Z,12.00
2022-10-03T14:07:25.113Z,12.00
2022-10-03T14:10:10.341Z,12.10
2022-10-03T14:12:55.461Z,12.10
2022-10-03T14:15:45.905Z,12.00
2022-10-03T14:18:24.628Z,11.90
2022-10-03T14:21:12.605Z,12.00
2022-10-03T14:23:52.426Z,12.00
2022-10-03T14:26:33.290Z,12.00
2022-10-03T14:29:41.730Z,11.90
2022-10-03T14:32:46.339Z,11.90
2022-10-03T14:35:46.103Z,12.00
2022-10-03T14:38:52.638Z,12.00
2022-10-03T14:41:25.961Z,12.00
2022-10-03T14:43:56.314Z,12.00
2022-10-03T14:46:32.024Z,12.00
2022-10-03T14:49:12.442Z,12.00
2022-10-03T14:51:58.400Z,12.00
2022-10-03T14:54:28.000Z,11.90
2022-10-03T14:56:56.789Z,11.90
2022-10-03T14:59:34.408Z,11.90
2022-10-03T15:02:21.555Z,11.90
2022-10-03T15:04:50.209Z,11.90
2022-10-03T15:07:17.348Z,12.00
2022-10-03T15:09:50.452Z,11.90
2022-10-03T15:12:24.200Z,12.00
2022-10-03T15:15:18.416Z,11.90
2022-10-03T15:17:52.064Z,11.90
2022-10-03T15:20:28.289Z,11.90
2022-10-03T15:22:58.522Z,11.90
2022-10-03T15:25:33.707Z,11.90
2022-10-03T15:28:25.117Z,12.00
2022-10-03T15:30:54.742Z,11.90
2022-10-03T15:33:29.084Z,11.90
2022-10-03T15:36:11.139Z,12.00
2022-10-03T15:38:40.775Z,12.00
2022-10-03T15:41:23.337Z,11.90
2022-10-03T15:43:50.749Z,11.90
2022-10-03T15:46:34.713Z,11.90
2022-10-03T15:49:07.435Z,11.90
2022-10-03T15:51:38.589Z,11.80
2022-10-03T15:54:09.282Z,11.80
2022-10-03T15:56:42.308Z,11.80
2022-10-03T15:59:21.047Z,11.80
2022-10-03T16:01:53.878Z,11.80
2022-10-03T16:04:38.397Z,11.80
2022-10-03T16:07:11.888Z,11.80
2022-10-03T16:10:04.281Z,11.80
2022-10-03T16:12:56.180Z,11.80
2022-10-03T16:15:51.399Z,11.80
2022-10-03T16:18:21.168Z,11.80
2022-10-03T16:20:57.098Z,11.80
2022-10-03T16:23:32.910Z,11.80
2022-10-03T16:26:05.763Z,11.80
2022-10-03T16:29:01.799Z,11.80
2022-10-03T16:31:35.844Z,11.70
2022-10-03T16:34:06.714Z,11.70
2022-10-03T16:36:49.341Z,11.70
2022-10-03T16:39:30.057Z,11.70
2022-10-03T16:41:57.876Z,11.70
2022-10-03T16:44:38.530Z,11.60
2022-10-03T16:47:08.100Z,11.60
2022-10-03T16:50:27.670Z,11.70
2022-10-03T16:52:58.706Z,11.70
2022-10-03T16:55:34.560Z,11.70
2022-10-03T16:58:29.468Z,11.60
2022-10-03T17:04:16.604Z,11.60
2022-10-03T17:06:48.910Z,11.60
2022-10-03T17:09:31.729Z,11.60
2022-10-03T17:12:00.812Z,11.60
2022-10-03T17:14:35.713Z,11.50
2022-10-03T17:17:20.927Z,11.50
2022-10-03T17:19:59.734Z,11.60
2022-10-03T17:22:33.514Z,11.50
2022-10-03T17:25:26.957Z,11.50
2022-10-03T17:27:54.775Z,11.50
2022-10-03T17:30:45.011Z,11.50
2022-10-03T17:33:41.866Z,11.50
2022-10-03T17:36:14.632Z,11.50
2022-10-03T17:39:04.577Z,11.50
2022-10-03T17:42:04.268Z,11.50
2022-10-03T17:44:51.314Z,11.50
2022-10-03T17:47:48.510Z,11.50
2022-10-03T17:50:23.619Z,11.50
2022-10-03T17:52:52.981Z,11.50
2022-10-03T17:55:38.750Z,11.50
2022-10-03T17:58:11.833Z,11.50
2022-10-03T18:00:56.326Z,11.60
2022-10-03T18:03:43.911Z,11.50
2022-10-03T18:06:29.804Z,11.50
2022-10-03T18:08:57.070Z,11.50
2022-10-03T18:11:29.687Z,11.50
2022-10-03T18:14:09.270Z,11.50
2022-10-03T18:16:56.801Z,11.50
2022-10-03T18:19:52.176Z,11.50
2022-10-03T18:22:28.964Z,11.50
2022-10-03T18:25:24.694Z,11.50
2022-10-03T18:28:09.516Z,11.40
2022-10-03T18:30:46.127Z,11.40
2022-10-03T18:33:32.658Z,11.40
2022-10-03T18:36:10.082Z,11.40
2022-10-03T18:38:37.813Z,11.30
2022-10-03T18:41:06.602Z,11.20
2022-10-03T18:43:35.105Z,11.10
2022-10-03T18:46:15.266Z,11.10
2022-10-03T18:49:28.298Z,11.10
2022-10-03T18:51:50.768Z,11.10
2022-10-03T18:54:17.835Z,11.10
2022-10-03T18:56:47.189Z,11.10
2022-10-03T18:59:33.742Z,11.10
2022-10-03T19:02:03.352Z,11.10
2022-10-03T19:04:40.075Z,11.10
2022-10-03T19:07:32.546Z,11.10
2022-10-03T19:10:05.423Z,11.10
2022-10-03T19:12:35.824Z,11.00
2022-10-03T19:15:02.621Z,11.00
2022-10-03T19:17:47.925Z,11.00
2022-10-03T19:20:26.694Z,11.00
2022-10-03T19:23:05.838Z,10.90
2022-10-03T19:25:38.194Z,10.90
2022-10-03T19:28:08.690Z,10.90
2022-10-03T19:30:37.195Z,10.90
2022-10-03T19:33:13.856Z,10.90
2022-10-03T19:35:46.282Z,10.80
2022-10-03T19:38:24.198Z,10.80
2022-10-03T19:41:13.571Z,10.80
2022-10-03T19:43:40.386Z,10.80
2022-10-03T19:46:25.314Z,10.80
2022-10-03T19:49:01.010Z,10.70
2022-10-03T19:51:28.426Z,10.70
2022-10-03T19:53:57.469Z,10.70
2022-10-03T19:56:32.333Z,10.60
2022-10-03T19:59:15.032Z,10.70
2022-10-03T20:01:48.147Z,10.60
2022-10-03T20:04:32.022Z,10.60
2022-10-03T20:06:59.589Z,10.60
2022-10-03T20:09:28.369Z,10.60
2022-10-03T20:12:00.116Z,10.60
2022-10-03T20:14:35.564Z,10.70
2022-10-03T20:17:21.139Z,10.70
2022-10-03T20:19:54.797Z,10.60
2022-10-03T20:22:28.659Z,10.70
2022-10-03T20:24:56.001Z,10.70
2022-10-03T20:27:50.705Z,10.70
2022-10-03T20:30:47.955Z,10.70
2022-10-03T20:33:19.588Z,10.70
2022-10-03T20:35:58.471Z,10.70
2022-10-03T20:38:49.789Z,10.70
2022-10-03T20:41:24.301Z,10.70
2022-10-03T20:44:03.282Z,10.70
2022-10-03T20:46:37.683Z,10.70
2022-10-03T20:49:30.853Z,10.70
2022-10-03T20:52:00.796Z,10.70
2022-10-03T20:54:35.419Z,10.70
2022-10-03T20:57:35.883Z,10.70
2022-10-03T21:00:18.526Z,10.80
2022-10-03T21:03:07.161Z,10.80
2022-10-03T21:05:38.759Z,10.70
2022-10-03T21:08:43.729Z,10.70
2022-10-03T21:11:10.814Z,10.70
2022-10-03T21:13:52.380Z,10.70
2022-10-03T21:16:30.202Z,10.70
2022-10-03T21:19:01.301Z,10.70
2022-10-03T21:21:39.483Z,10.70
2022-10-03T21:24:38.617Z,10.70
2022-10-03T21:27:14.502Z,10.70
2022-10-03T21:29:56.830Z,10.70
2022-10-03T21:32:51.516Z,10.70
2022-10-03T21:35:31.161Z,10.70
2022-10-03T21:38:24.333Z,10.60
2022-10-03T21:41:12.086Z,10.70
2022-10-03T21:43:51.429Z,10.70
2022-10-03T21:46:33.400Z,10.70
2022-10-03T21:49:17.440Z,10.70
2022-10-03T21:51:47.542Z,10.70
2022-10-03T21:54:40.775Z,10.70
2022-10-03T21:57:44.398Z,10.70
2022-10-03T22:00:17.183Z,10.70
2022-10-03T22:03:14.602Z,10.70
2022-10-03T22:06:00.631Z,10.60
2022-10-03T22:08:27.519Z,10.60
2022-10-03T22:11:02.011Z,10.70
2022-10-03T22:13:35.017Z,10.70
2022-10-03T22:16:12.753Z,10.70
2022-10-03T22:18:58.295Z,10.70
2022-10-03T22:21:43.409Z,10.70
2022-10-03T22:24:19.564Z,10.70
2022-10-03T22:26:51.470Z,10.70
2022-10-03T22:29:34.782Z,10.70
2022-10-03T22:32:11.659Z,10.70
2022-10-03T22:35:02.350Z,10.70
2022-10-03T22:37:29.501Z,10.70
2022-10-03T22:39:59.706Z,10.70
2022-10-03T22:42:30.430Z,10.80
2022-10-03T22:44:58.104Z,10.80
2022-10-03T22:47:29.680Z,10.70
2022-10-03T22:50:01.843Z,10.70
2022-10-03T22:52:33.739Z,10.60
2022-10-03T22:55:02.730Z,10.60
2022-10-03T22:57:35.004Z,10.50
2022-10-03T23:00:10.143Z,10.30
2022-10-03T23:02:48.844Z,10.20
2022-10-03T23:05:47.952Z,10.10
2022-10-03T23:08:17.965Z,10.00
2022-10-03T23:10:56.361Z,9.90
2022-10-03T23:13:40.917Z,9.80
2022-10-03T23:16:19.880Z,9.70
2022-10-03T23:18:55.599Z,9.60
2022-10-03T23:21:22.567Z,9.60
2022-10-03T23:23:55.009Z,9.50
2022-10-03T23:26:47.201Z,9.50
2022-10-03T23:29:19.115Z,9.40
2022-10-03T23:31:56.119Z,9.40
2022-10-03T23:34:37.629Z,9.40
2022-10-03T23:37:26.118Z,9.40
2022-10-03T23:39:55.746Z,9.40
2022-10-03T23:42:55.423Z,9.50
2022-10-03T23:45:24.454Z,9.40
2022-10-03T23:47:51.228Z,9.40
2022-10-03T23:50:33.171Z,9.40
2022-10-03T23:53:01.069Z,9.40
2022-10-03T23:55:31.650Z,9.50
2022-10-03T23:57:59.131Z,9.40
